Time;durP1;ratioP1;P1;durP2;ratioP2;P2;SDS_P1;SDS_P2;PMS_P1;PMS_P2;Temp;Humidity;BMP_temperature;BMP_pressure;BME280_temperature;BME280_humidity;BME280_pressure;Samples;Min_cycle;Max_cycle;Signal;HPM_P1;HPM_P2
2021/01/24 00:01:03;;;;;;;16.35;9.60;;;;;;;3.14;81.57;98573.59;1562035;89;26048;-78
2021/01/24 00:03:30;;;;;;;15.50;9.68;;;;;;;3.24;81.52;98586.33;1560579;88;25771;-78
2021/01/24 00:06:01;;;;;;;16.15;10.60;;;;;;;3.22;81.28;98580.51;1585988;87;25789;-79
2021/01/24 00:08:28;;;;;;;19.70;12.95;;;;;;;3.16;81.33;98579.88;1555005;89;25600;-78
2021/01/24 00:10:54;;;;;;;21.33;11.22;;;;;;;3.12;81.47;98584.56;1571023;89;25775;-77
2021/01/24 00:13:20;;;;;;;17.80;9.75;;;;;;;3.09;81.50;98588.75;1569831;89;26352;-78
2021/01/24 00:15:47;;;;;;;14.18;8.73;;;;;;;3.08;81.57;98594.41;1567720;88;25869;-80
2021/01/24 00:18:13;;;;;;;16.57;10.43;;;;;;;3.04;81.31;98596.97;1585623;87;25923;-79
2021/01/24 00:20:39;;;;;;;18.50;10.45;;;;;;;3.05;81.59;98592.61;1627045;83;25731;-78
2021/01/24 00:23:06;;;;;;;14.87;10.32;;;;;;;3.10;81.67;98598.09;1723679;82;25696;-78
2021/01/24 00:25:32;;;;;;;17.40;10.35;;;;;;;3.13;81.50;98599.55;1724337;82;26414;-79
2021/01/24 00:27:59;;;;;;;14.35;10.78;;;;;;;3.13;81.50;98606.81;1723255;82;26593;-78
2021/01/24 00:30:25;;;;;;;17.05;10.13;;;;;;;3.14;81.47;98603.28;1723931;82;26522;-78
2021/01/24 00:32:51;;;;;;;15.85;10.32;;;;;;;3.14;81.41;98596.83;1724353;82;26400;-79
2021/01/24 00:35:18;;;;;;;18.20;11.18;;;;;;;3.12;81.32;98583.27;1729148;82;25750;-80
2021/01/24 00:37:44;;;;;;;20.08;12.33;;;;;;;3.08;81.33;98580.67;1729228;81;25923;-80
2021/01/24 00:40:11;;;;;;;19.77;12.65;;;;;;;3.04;81.32;98571.66;1724775;81;25895;-78
2021/01/24 00:42:38;;;;;;;20.72;12.10;;;;;;;3.02;81.38;98572.29;1726913;81;26193;-78
2021/01/24 00:45:08;;;;;;;21.93;12.13;;;;;;;3.01;81.38;98573.27;1728135;81;25881;-79
2021/01/24 00:47:35;;;;;;;19.05;10.98;;;;;;;2.90;81.29;98547.30;1730870;81;26480;-78
2021/01/24 00:50:03;;;;;;;18.57;11.75;;;;;;;2.90;81.29;98547.30;1728972;81;25841;-80
2021/01/24 00:52:30;;;;;;;22.07;12.53;;;;;;;2.98;81.20;98572.30;1727647;82;26003;-78
2021/01/24 00:54:57;;;;;;;24.10;13.15;;;;;;;2.92;81.22;98558.73;1727433;82;25892;-78
2021/01/24 00:57:24;;;;;;;19.75;11.18;;;;;;;2.92;81.40;98554.86;1687148;83;46074;-78
2021/01/24 00:59:52;;;;;;;18.82;12.20;;;;;;;2.88;81.31;98556.96;1722816;83;26394;-78
2021/01/24 01:02:18;;;;;;;21.00;12.65;;;;;;;2.81;81.29;98547.78;1741611;81;25945;-79
2021/01/24 01:04:44;;;;;;;20.80;11.93;;;;;;;2.77;81.43;98544.38;1712483;81;25890;-80
2021/01/24 01:07:11;;;;;;;20.72;11.35;;;;;;;2.75;81.48;98542.44;1709033;83;25956;-79
2021/01/24 01:09:37;;;;;;;17.55;9.90;;;;;;;2.76;81.56;98555.19;1714891;81;26344;-78
2021/01/24 01:12:05;;;;;;;12.98;8.93;;;;;;;2.76;81.52;98554.39;1716142;81;26356;-79
2021/01/24 01:14:31;;;;;;;17.17;10.20;;;;;;;2.74;81.47;98545.50;1717021;83;26388;-79
2021/01/24 01:16:58;;;;;;;14.50;10.50;;;;;;;2.73;81.62;98541.33;1737837;81;25810;-78
2021/01/24 01:19:24;;;;;;;15.10;10.65;;;;;;;2.73;81.61;98543.07;1744730;80;26861;-79
2021/01/24 01:21:50;;;;;;;19.35;11.45;;;;;;;2.71;81.54;98540.67;1729523;82;26446;-78
2021/01/24 01:24:17;;;;;;;15.13;10.58;;;;;;;2.70;81.52;98540.81;1724644;81;25818;-78
2021/01/24 01:26:43;;;;;;;12.68;9.63;;;;;;;2.69;81.43;98529.70;1724222;82;25983;-79
2021/01/24 01:29:09;;;;;;;14.13;9.08;;;;;;;2.65;81.32;98520.68;1725190;81;25885;-79
2021/01/24 01:31:36;;;;;;;12.45;9.05;;;;;;;2.65;81.56;98525.84;1729041;81;25937;-78
2021/01/24 01:34:02;;;;;;;13.72;9.33;;;;;;;2.64;81.42;98527.59;1730174;82;26328;-80
2021/01/24 01:36:28;;;;;;;16.30;10.23;;;;;;;2.64;81.44;98523.72;1713901;82;25850;-79
2021/01/24 01:38:55;;;;;;;14.87;10.55;;;;;;;2.59;81.37;98509.23;1713155;81;25880;-78
2021/01/24 01:41:21;;;;;;;14.93;11.70;;;;;;;2.58;81.29;98523.56;1733622;81;25816;-78
2021/01/24 01:43:47;;;;;;;15.78;10.88;;;;;;;2.54;81.48;98517.13;1727649;81;25768;-79
2021/01/24 01:46:18;;;;;;;14.93;10.43;;;;;;;2.53;81.60;98512.43;1725483;81;25905;-78
2021/01/24 01:48:45;;;;;;;15.45;10.48;;;;;;;2.52;81.58;98519.85;1724156;81;25882;-78
2021/01/24 01:51:11;;;;;;;19.02;11.00;;;;;;;2.50;81.67;98523.06;1710776;81;26029;-79
2021/01/24 01:53:38;;;;;;;16.85;11.48;;;;;;;2.48;81.63;98520.31;1718595;81;26566;-78
2021/01/24 01:56:04;;;;;;;17.45;10.20;;;;;;;2.47;81.73;98514.84;1723481;81;26350;-78
2021/01/24 01:58:30;;;;;;;17.00;11.50;;;;;;;2.51;81.82;98522.58;1721533;81;25859;-78
2021/01/24 02:00:59;;;;;;;15.58;11.05;;;;;;;2.52;81.86;98513.89;1724706;82;26366;-78
2021/01/24 02:03:46;;;;;;;12.53;10.10;;;;;;;2.47;82.08;98497.60;1725064;81;25860;-79
2021/01/24 02:06:38;;;;;;;15.93;10.95;;;;;;;2.47;82.08;98497.60;1723883;82;25863;-80
2021/01/24 02:09:25;;;;;;;15.75;10.78;;;;;;;2.47;82.00;98500.67;1722655;81;25913;-79
2021/01/24 02:12:11;;;;;;;14.15;10.35;;;;;;;2.47;82.11;98495.52;1722767;82;25775;-78
2021/01/24 02:14:46;;;;;;;13.35;9.65;;;;;;;2.46;82.17;98491.33;1723881;82;26371;-78
2021/01/24 02:17:17;;;;;;;14.35;9.65;;;;;;;2.43;82.23;98486.81;1732299;82;25817;-80
2021/01/24 02:20:22;;;;;;;13.60;9.65;;;;;;;2.43;82.30;98489.39;1740106;81;25918;-79
2021/01/24 02:22:51;;;;;;;15.83;10.00;;;;;;;2.43;82.37;98482.14;1741265;82;25715;-79
2021/01/24 02:25:40;;;;;;;17.40;12.03;;;;;;;2.45;82.53;98486.63;1743266;81;26010;-80
2021/01/24 02:28:51;;;;;;;16.42;11.75;;;;;;;2.39;82.52;98482.13;1737302;82;25754;-79
2021/01/24 02:31:20;;;;;;;15.93;10.43;;;;;;;2.34;82.86;98477.92;1719529;82;25869;-80
2021/01/24 02:33:49;;;;;;;18.12;11.08;;;;;;;2.34;82.86;98477.92;1721358;82;26473;-78
2021/01/24 02:36:18;;;;;;;14.53;10.78;;;;;;;2.21;83.05;98461.65;1706048;82;26471;-79
2021/01/24 02:38:45;;;;;;;15.70;10.78;;;;;;;2.21;83.05;98461.65;1741727;80;25743;-78
2021/01/24 02:41:15;;;;;;;16.55;11.28;;;;;;;2.29;83.14;98484.86;1742231;82;25865;-80
2021/01/24 02:43:46;;;;;;;15.20;11.12;;;;;;;2.18;83.37;98464.06;1741992;80;26451;-78
2021/01/24 02:46:16;;;;;;;17.35;11.45;;;;;;;2.18;83.37;98464.06;1743602;82;25573;-79
2021/01/24 02:48:50;;;;;;;17.25;11.48;;;;;;;2.37;83.37;98496.48;1742402;80;26822;-79
2021/01/24 02:51:18;;;;;;;15.63;10.58;;;;;;;2.41;83.34;98493.09;1742687;80;25840;-80
2021/01/24 02:53:47;;;;;;;16.82;11.88;;;;;;;2.47;83.50;98491.64;1744128;81;25828;-79
2021/01/24 02:56:13;;;;;;;16.67;12.03;;;;;;;2.49;83.43;98484.56;1742674;82;25836;-79
2021/01/24 02:58:41;;;;;;;17.02;11.93;;;;;;;2.42;83.71;98497.27;1741765;80;25954;-79
2021/01/24 03:01:08;;;;;;;16.77;11.85;;;;;;;2.42;83.71;98497.27;1743001;81;25833;-78
2021/01/24 03:03:34;;;;;;;16.87;12.55;;;;;;;2.42;83.69;98503.71;1740920;80;25822;-78
2021/01/24 03:06:01;;;;;;;17.35;12.07;;;;;;;2.38;83.61;98510.97;1743026;81;26717;-78
2021/01/24 03:08:27;;;;;;;16.17;11.73;;;;;;;2.37;84.12;98487.45;1742591;80;25779;-78
2021/01/24 03:10:54;;;;;;;14.68;10.72;;;;;;;2.37;84.12;98487.45;1743943;81;25887;-79
2021/01/24 03:13:28;;;;;;;13.43;10.08;;;;;;;2.53;84.14;98498.25;1742333;81;25880;-78
2021/01/24 03:15:56;;;;;;;15.48;10.72;;;;;;;2.56;83.66;98488.09;1743525;81;25881;-78
2021/01/24 03:18:26;;;;;;;16.87;11.95;;;;;;;2.41;83.70;98460.38;1741636;80;25973;-78
2021/01/24 03:20:55;;;;;;;16.40;12.33;;;;;;;2.57;83.86;98489.73;1718428;82;25778;-79
2021/01/24 03:23:22;;;;;;;16.17;11.68;;;;;;;2.62;83.85;98490.86;1746625;81;25601;-78
2021/01/24 03:25:49;;;;;;;18.00;13.30;;;;;;;2.64;83.77;98497.13;1720484;82;26575;-79
2021/01/24 03:28:16;;;;;;;16.30;12.63;;;;;;;2.64;83.78;98490.19;1718994;82;25768;-78
2021/01/24 03:30:43;;;;;;;17.82;13.28;;;;;;;2.60;83.62;98481.67;1742946;80;27081;-80
2021/01/24 03:33:10;;;;;;;17.90;12.82;;;;;;;2.55;83.71;98490.36;1742740;81;26436;-78
2021/01/24 03:35:37;;;;;;;17.10;13.00;;;;;;;2.52;83.82;98479.08;1742896;81;25859;-78
2021/01/24 03:38:03;;;;;;;17.00;13.32;;;;;;;2.54;83.98;98481.83;1743053;81;25834;-80
2021/01/24 03:40:29;;;;;;;20.23;13.78;;;;;;;2.49;84.06;98464.73;1740469;82;25715;-78
2021/01/24 03:42:55;;;;;;;20.02;12.85;;;;;;;2.49;84.06;98464.73;1742253;81;25870;-78
2021/01/24 03:45:22;;;;;;;17.17;12.50;;;;;;;2.54;84.22;98469.42;1743454;81;25987;-77
2021/01/24 03:47:48;;;;;;;16.30;12.68;;;;;;;2.57;84.33;98461.36;1742650;81;26327;-79
2021/01/24 03:50:14;;;;;;;16.07;11.43;;;;;;;2.72;84.34;98489.88;1743499;80;25708;-78
2021/01/24 03:52:40;;;;;;;17.23;13.18;;;;;;;2.75;84.16;98481.33;1742686;80;26359;-79
2021/01/24 03:55:08;;;;;;;16.65;12.75;;;;;;;2.77;83.85;98486.34;1742494;81;25810;-78
2021/01/24 03:57:34;;;;;;;16.87;12.88;;;;;;;2.82;84.08;98494.41;1743010;81;25771;-77
2021/01/24 04:00:04;;;;;;;19.27;14.07;;;;;;;2.86;84.14;98496.97;1742156;81;26585;-78
2021/01/24 04:02:33;;;;;;;17.80;14.13;;;;;;;2.86;84.08;98493.93;1740969;81;26018;-80
2021/01/24 04:04:59;;;;;;;17.37;13.68;;;;;;;2.93;84.17;98504.40;1743006;80;26322;-78
2021/01/24 04:07:26;;;;;;;17.42;13.78;;;;;;;2.96;84.24;98509.23;1742421;82;25877;-77
2021/01/24 04:09:52;;;;;;;17.20;13.83;;;;;;;2.95;83.99;98503.76;1741857;80;26522;-79
2021/01/24 04:12:18;;;;;;;18.50;14.23;;;;;;;2.85;83.89;98496.17;1743749;80;25278;-79
2021/01/24 04:14:44;;;;;;;20.15;15.32;;;;;;;2.79;83.83;98499.41;1743069;80;26481;-77
2021/01/24 04:17:11;;;;;;;19.30;15.15;;;;;;;2.76;83.99;98493.28;1741736;80;25826;-79
2021/01/24 04:19:37;;;;;;;20.68;15.68;;;;;;;2.77;84.21;98497.45;1742821;80;25826;-77
2021/01/24 04:22:04;;;;;;;17.85;13.05;;;;;;;2.80;84.04;98500.20;1743656;82;25779;-79
2021/01/24 04:24:30;;;;;;;16.20;13.03;;;;;;;2.76;83.89;98501.02;1742998;81;25718;-79
2021/01/24 04:26:56;;;;;;;20.52;12.50;;;;;;;2.74;83.82;98491.34;1741540;80;25805;-77
2021/01/24 04:29:22;;;;;;;15.30;11.88;;;;;;;2.82;84.22;98488.76;1741742;80;25894;-78
2021/01/24 04:31:49;;;;;;;16.77;12.57;;;;;;;2.91;84.32;98492.63;1740943;80;34879;-79
2021/01/24 04:34:15;;;;;;;18.75;13.65;;;;;;;3.00;84.37;98493.76;1741157;80;26311;-78
2021/01/24 04:36:42;;;;;;;17.95;13.25;;;;;;;3.05;84.17;98498.41;1743190;80;25969;-79
2021/01/24 04:39:08;;;;;;;16.80;13.75;;;;;;;3.05;84.00;98487.59;1739821;80;25774;-79
2021/01/24 04:41:36;;;;;;;17.80;14.85;;;;;;;2.99;83.81;98489.55;1739468;80;25743;-79
2021/01/24 04:44:07;;;;;;;16.57;13.08;;;;;;;2.85;83.81;98460.55;1741108;80;25951;-79
2021/01/24 04:46:34;;;;;;;;;;;;;;;2.90;83.80;98480.21;1745541;80;25897;-79
2021/01/24 04:49:02;;;;;;;20.25;15.05;;;;;;;2.88;83.89;98475.20;1715722;82;25797;-77
2021/01/24 04:51:28;;;;;;;20.50;15.20;;;;;;;2.89;84.12;98473.42;1740440;80;26614;-78
2021/01/24 04:53:55;;;;;;;19.50;15.18;;;;;;;2.95;84.24;98474.58;1742748;80;26388;-78
2021/01/24 04:56:22;;;;;;;19.77;15.45;;;;;;;2.91;83.86;98470.20;1742482;80;25984;-78
2021/01/24 04:58:48;;;;;;;17.87;15.00;;;;;;;2.76;83.61;98461.03;1742106;80;26232;-79
2021/01/24 05:01:17;;;;;;;19.12;15.13;;;;;;;2.63;83.59;98454.27;1744304;80;25731;-77
2021/01/24 05:03:43;;;;;;;20.48;14.58;;;;;;;2.58;83.82;98456.52;1743650;80;25812;-78
2021/01/24 05:06:09;;;;;;;22.32;14.73;;;;;;;2.66;84.31;98453.94;1742024;80;26548;-77
2021/01/24 05:08:36;;;;;;;20.90;16.12;;;;;;;2.77;84.52;98460.05;1741564;80;25889;-78
2021/01/24 05:11:07;;;;;;;19.77;16.07;;;;;;;2.89;84.50;98460.52;1741131;80;25921;-79
2021/01/24 05:13:34;;;;;;;19.20;15.18;;;;;;;2.93;84.54;98455.86;1742694;80;25845;-78
2021/01/24 05:16:01;;;;;;;22.02;15.65;;;;;;;2.92;84.05;98465.38;1744523;80;25824;-77
2021/01/24 05:18:28;;;;;;;20.65;15.53;;;;;;;2.91;83.99;98468.11;1740838;80;26366;-78
2021/01/24 05:20:54;;;;;;;23.57;16.50;;;;;;;2.86;83.97;98472.45;1742788;80;25767;-78
2021/01/24 05:23:22;;;;;;;24.50;17.90;;;;;;;2.83;84.05;98470.20;1743034;80;25809;-77
2021/01/24 05:25:49;;;;;;;23.55;16.93;;;;;;;2.75;83.78;98466.34;1717627;82;25610;-80
2021/01/24 05:28:26;;;;;;;23.85;16.60;;;;;;;2.66;84.07;98465.55;1741212;80;26426;-78
2021/01/24 05:31:05;;;;;;;22.42;15.98;;;;;;;2.64;84.14;98460.53;1742476;80;25881;-80
2021/01/24 05:33:31;;;;;;;22.00;16.90;;;;;;;2.55;84.07;98457.64;1741314;80;25855;-78
2021/01/24 05:35:58;;;;;;;21.80;16.85;;;;;;;2.57;84.28;98460.08;1742936;80;25898;-78
2021/01/24 05:38:30;;;;;;;17.95;14.83;;;;;;;2.58;84.36;98459.89;1714532;82;26433;-77
2021/01/24 05:41:09;;;;;;;22.85;15.20;;;;;;;2.62;84.36;98461.69;1721248;82;26413;-79
2021/01/24 05:43:43;;;;;;;21.47;15.67;;;;;;;2.63;84.29;98447.81;1741409;80;25559;-78
2021/01/24 05:46:11;;;;;;;22.40;16.48;;;;;;;2.62;84.32;98447.02;1715877;81;25381;-76
2021/01/24 05:48:50;;;;;;;24.45;15.48;;;;;;;2.61;84.35;98450.55;1689136;83;25710;-78
2021/01/24 05:51:17;;;;;;;20.08;16.97;;;;;;;2.59;84.29;98452.50;1721665;82;26056;-78
2021/01/24 05:53:49;;;;;;;21.60;15.45;;;;;;;2.58;84.42;98453.45;1690393;83;26384;-77
2021/01/24 05:56:20;;;;;;;24.45;17.35;;;;;;;2.58;84.47;98442.33;1692325;83;25695;-77
2021/01/24 05:59:02;;;;;;;22.73;17.02;;;;;;;2.52;84.39;98450.23;1700718;82;25747;-78
2021/01/24 06:01:30;;;;;;;23.07;17.15;;;;;;;2.50;84.46;98449.58;1763187;80;26321;-78
2021/01/24 06:03:59;;;;;;;23.00;17.35;;;;;;;2.49;84.46;98449.27;1763543;80;25824;-79
2021/01/24 06:06:25;;;;;;;25.95;18.35;;;;;;;2.46;84.51;98456.04;1764282;80;26687;-77
2021/01/24 06:08:51;;;;;;;26.25;17.37;;;;;;;2.48;84.59;98450.21;1705020;83;25905;-77
2021/01/24 06:11:20;;;;;;;23.73;17.20;;;;;;;2.50;84.75;98452.64;1708483;82;25955;-79
2021/01/24 06:13:51;;;;;;;23.85;17.02;;;;;;;2.51;84.64;98455.08;1707758;83;26467;-78
2021/01/24 06:16:25;;;;;;;23.12;17.57;;;;;;;2.53;84.64;98454.90;1696672;83;25868;-79
2021/01/24 06:18:59;;;;;;;26.27;19.57;;;;;;;2.51;84.53;98447.80;1718774;80;25903;-77
2021/01/24 06:21:41;;;;;;;23.35;18.37;;;;;;;2.48;84.63;98439.10;1710040;82;25979;-77
2021/01/24 06:24:11;;;;;;;24.45;17.67;;;;;;;2.44;84.42;98443.30;1689520;82;25773;-78
2021/01/24 06:26:45;;;;;;;25.85;18.80;;;;;;;2.35;84.39;98433.95;1662111;83;25822;-78
2021/01/24 06:29:13;;;;;;;24.52;19.45;;;;;;;2.28;84.54;98430.87;1718919;81;25870;-78
2021/01/24 06:31:49;;;;;;;25.70;19.05;;;;;;;2.33;85.03;98433.79;1673769;83;26765;-77
2021/01/24 06:34:16;;;;;;;23.45;18.23;;;;;;;2.42;85.29;98436.69;1736138;80;25956;-77
2021/01/24 06:37:18;;;;;;;25.82;17.62;;;;;;;2.41;84.76;98432.02;1745284;80;25549;-78
2021/01/24 06:39:52;;;;;;;23.50;18.15;;;;;;;2.33;84.72;98430.72;1724783;81;34897;-78
2021/01/24 06:42:47;;;;;;;24.77;17.42;;;;;;;2.34;84.85;98431.52;1736222;80;25727;-78
2021/01/24 06:45:28;;;;;;;24.47;17.62;;;;;;;2.33;84.86;98429.44;1735272;79;26596;-77
2021/01/24 06:48:00;;;;;;;25.37;18.37;;;;;;;2.29;84.73;98435.89;1733946;81;26450;-77
2021/01/24 06:50:48;;;;;;;24.92;17.62;;;;;;;2.23;84.70;98432.64;1732912;81;25955;-78
2021/01/24 06:53:27;;;;;;;25.15;17.48;;;;;;;2.17;84.70;98432.80;1737594;79;25850;-77
2021/01/24 06:56:00;;;;;;;24.72;18.27;;;;;;;2.10;84.79;98416.37;1733222;81;25771;-79
2021/01/24 06:58:30;;;;;;;25.62;19.27;;;;;;;2.08;85.14;98417.50;1733273;80;25723;-77
2021/01/24 07:01:32;;;;;;;27.05;20.15;;;;;;;2.16;85.62;98414.44;1680867;82;25777;-77
2021/01/24 07:04:28;;;;;;;27.35;18.77;;;;;;;2.17;85.25;98409.59;1701186;83;25885;-77
2021/01/24 07:06:58;;;;;;;23.92;18.85;;;;;;;2.17;85.25;98409.59;1718241;82;25752;-79
2021/01/24 07:09:30;;;;;;;24.63;18.37;;;;;;;1.98;85.27;98385.42;1719807;82;26015;-79
2021/01/24 07:12:02;;;;;;;22.58;17.77;;;;;;;2.13;85.51;98414.77;1722029;82;25669;-79
2021/01/24 07:14:42;;;;;;;24.32;18.17;;;;;;;2.18;85.62;98409.94;1721384;82;25687;-78
2021/01/24 07:17:13;;;;;;;25.27;17.05;;;;;;;2.19;85.46;98418.47;1740564;81;26732;-79
2021/01/24 07:19:43;;;;;;;25.23;16.65;;;;;;;2.17;85.45;98417.33;1717541;82;25633;-79
2021/01/24 07:22:10;;;;;;;24.02;17.73;;;;;;;2.20;85.55;98423.94;1718373;83;25599;-79
2021/01/24 07:24:38;;;;;;;22.98;16.48;;;;;;;2.22;85.64;98422.81;1719796;83;25577;-78
2021/01/24 07:27:14;;;;;;;22.62;18.32;;;;;;;2.18;85.41;98424.12;1745523;80;25862;-80
2021/01/24 07:29:40;;;;;;;20.77;17.32;;;;;;;2.11;85.42;98420.55;1717301;81;25555;-78
2021/01/24 07:32:13;;;;;;;25.72;18.90;;;;;;;2.14;85.63;98418.94;1696493;83;25593;-78
2021/01/24 07:34:42;;;;;;;26.95;19.65;;;;;;;2.15;85.62;98421.83;1755197;80;25643;-78
2021/01/24 07:37:08;;;;;;;24.35;18.42;;;;;;;2.17;85.66;98417.81;1757020;80;26476;-77
2021/01/24 07:39:36;;;;;;;26.37;20.52;;;;;;;2.18;85.70;98412.52;1783532;78;25917;-77
2021/01/24 07:42:04;;;;;;;27.98;20.62;;;;;;;2.20;85.76;98411.05;1781896;78;26482;-79
2021/01/24 07:44:32;;;;;;;28.15;20.95;;;;;;;2.18;85.84;98404.79;1782927;78;25931;-79
2021/01/24 07:46:58;;;;;;;24.57;19.30;;;;;;;2.16;85.82;98401.55;1785327;78;26260;-77
2021/01/24 07:49:25;;;;;;;26.75;20.40;;;;;;;2.10;85.78;98403.48;1782908;78;25794;-78
2021/01/24 07:51:53;;;;;;;29.77;20.02;;;;;;;2.06;85.84;98400.09;1783893;79;25774;-79
2021/01/24 07:54:20;;;;;;;57.58;35.15;;;;;;;2.05;86.03;98393.34;1781468;78;25810;-78
2021/01/24 07:56:47;;;;;;;30.95;23.10;;;;;;;2.03;86.13;98393.48;1781233;78;25877;-78
2021/01/24 07:59:16;;;;;;;33.38;25.57;;;;;;;2.10;86.37;98393.64;1781106;78;25823;-78
2021/01/24 08:01:44;;;;;;;45.90;32.80;;;;;;;2.15;86.55;98397.35;1779970;78;25845;-78
2021/01/24 08:04:11;;;;;;;38.45;26.95;;;;;;;2.29;86.75;98398.52;1784626;78;26487;-76
2021/01/24 08:06:45;;;;;;;91.65;62.40;;;;;;;2.30;86.42;98395.45;1782241;78;26176;-77
2021/01/24 08:09:12;;;;;;;122.35;79.15;;;;;;;2.32;86.37;98391.75;1781835;78;25780;-77
2021/01/24 08:11:38;;;;;;;566.12;396.73;;;;;;;2.40;86.37;98385.76;1780975;78;25802;-78
2021/01/24 08:14:05;;;;;;;491.23;315.02;;;;;;;2.32;86.32;98376.28;1782337;78;25989;-77
2021/01/24 08:16:41;;;;;;;300.30;188.25;;;;;;;2.39;86.25;98382.88;1783115;78;25860;-76
2021/01/24 08:19:12;;;;;;;819.60;534.77;;;;;;;2.48;86.64;98379.31;1756968;78;25812;-76
2021/01/24 08:21:39;;;;;;;176.85;87.65;;;;;;;2.50;86.28;98386.41;1761238;80;25675;-76
2021/01/24 08:24:08;;;;;;;75.75;43.30;;;;;;;2.46;86.21;98386.91;1761745;80;25804;-78
2021/01/24 08:26:36;;;;;;;46.40;31.10;;;;;;;2.26;86.42;98364.02;1761903;80;26276;-77
2021/01/24 08:29:04;;;;;;;530.17;347.35;;;;;;;2.26;86.42;98364.02;1743531;80;25936;-78
2021/01/24 08:31:30;;;;;;;111.08;66.95;;;;;;;2.55;86.62;98378.99;1695414;82;26534;-77
2021/01/24 08:33:56;;;;;;;143.57;93.25;;;;;;;2.55;86.62;98378.99;1679223;83;25900;-77
2021/01/24 08:36:26;;;;;;;133.15;106.58;;;;;;;2.66;86.86;98369.63;1763563;80;25700;-77
2021/01/24 08:39:00;;;;;;;405.43;254.78;;;;;;;2.76;86.59;98366.09;1762780;80;25761;-76
2021/01/24 08:41:33;;;;;;;117.08;85.35;;;;;;;2.86;86.47;98358.95;1761562;79;25984;-76
2021/01/24 08:44:13;;;;;;;161.12;134.50;;;;;;;2.86;86.47;98358.95;1763565;80;25906;-77
2021/01/24 08:46:44;;;;;;;37.42;28.85;;;;;;;2.84;85.88;98356.55;1761929;81;25902;-78
2021/01/24 08:49:14;;;;;;;207.85;185.37;;;;;;;2.80;85.61;98354.45;1762905;80;25954;-76
2021/01/24 08:51:59;;;;;;;180.50;161.25;;;;;;;2.78;85.75;98358.97;1762344;80;26203;-77
2021/01/24 08:54:32;;;;;;;60.78;52.08;;;;;;;2.77;85.70;98361.23;1762775;79;25842;-76
2021/01/24 08:57:18;;;;;;;70.15;61.42;;;;;;;2.72;85.60;98359.14;1762877;79;25844;-77
2021/01/24 08:59:58;;;;;;;147.60;126.33;;;;;;;2.63;85.77;98353.20;1761425;80;25764;-77
2021/01/24 09:02:35;;;;;;;389.98;347.77;;;;;;;2.63;86.00;98350.62;1762402;80;25902;-77
2021/01/24 09:05:05;;;;;;;188.12;162.62;;;;;;;2.68;86.11;98359.16;1761308;79;26500;-77
2021/01/24 09:07:44;;;;;;;126.30;113.68;;;;;;;2.72;86.32;98360.92;1765746;80;25847;-79
2021/01/24 09:10:23;;;;;;;51.93;46.43;;;;;;;2.77;86.24;98355.59;1761748;80;25770;-78
2021/01/24 09:12:52;;;;;;;49.08;41.28;;;;;;;2.81;86.24;98354.77;1761423;80;26503;-77
2021/01/24 09:15:21;;;;;;;33.05;26.93;;;;;;;2.82;86.01;98352.03;1763171;80;25538;-77
2021/01/24 09:17:49;;;;;;;43.92;36.05;;;;;;;2.89;86.21;98353.45;1764167;80;25908;-79
2021/01/24 09:20:17;;;;;;;104.78;64.07;;;;;;;2.96;86.22;98345.88;1764709;79;26042;-78
2021/01/24 09:22:44;;;;;;;73.37;46.98;;;;;;;2.95;85.92;98345.07;1763935;80;26313;-79
2021/01/24 09:25:11;;;;;;;125.25;73.17;;;;;;;2.98;85.73;98343.94;1763242;80;25888;-77
2021/01/24 09:27:38;;;;;;;193.35;99.92;;;;;;;2.92;85.51;98337.66;1740650;80;26515;-78
2021/01/24 09:30:09;;;;;;;151.05;79.47;;;;;;;2.94;85.66;98337.48;1763363;80;25681;-78
2021/01/24 09:32:36;;;;;;;158.93;85.55;;;;;;;2.97;85.87;98333.28;1766421;80;26312;-77
2021/01/24 09:35:04;;;;;;;108.87;59.98;;;;;;;3.01;85.76;98331.98;1764081;80;25765;-78
2021/01/24 09:37:31;;;;;;;261.68;141.22;;;;;;;3.03;85.87;98325.69;1764583;80;25969;-78
2021/01/24 09:39:58;;;;;;;184.65;98.70;;;;;;;2.95;85.65;98310.23;1754828;80;25990;-79
2021/01/24 09:42:26;;;;;;;319.77;166.28;;;;;;;2.95;85.65;98310.23;1721004;80;25926;-77
2021/01/24 09:44:52;;;;;;;328.35;150.47;;;;;;;3.02;85.85;98335.67;1708799;83;25921;-79
2021/01/24 09:47:18;;;;;;;541.80;272.82;;;;;;;3.02;85.85;98335.67;1706086;83;26296;-79
2021/01/24 09:49:44;;;;;;;454.27;215.05;;;;;;;2.97;85.82;98329.41;1699690;83;25819;-77
2021/01/24 09:52:11;;;;;;;514.70;253.30;;;;;;;2.97;85.61;98334.56;1725520;81;25790;-77
2021/01/24 09:54:38;;;;;;;446.25;218.15;;;;;;;3.01;85.68;98334.08;1647734;84;25893;-78
2021/01/24 09:57:04;;;;;;;338.45;163.37;;;;;;;3.00;85.53;98324.73;1658470;84;25934;-78
2021/01/24 09:59:30;;;;;;;436.05;241.48;;;;;;;2.92;85.21;98325.22;1664007;84;26305;-78
2021/01/24 10:01:58;;;;;;;349.27;183.78;;;;;;;2.88;85.30;98322.19;1635048;85;26039;-77
2021/01/24 10:04:25;;;;;;;257.05;136.55;;;;;;;2.89;85.57;98313.46;1662365;84;26485;-77
2021/01/24 10:06:51;;;;;;;184.87;102.17;;;;;;;3.00;85.89;98318.75;1657400;83;25739;-77
2021/01/24 10:09:17;;;;;;;109.15;64.25;;;;;;;3.06;85.89;98312.45;1644833;84;25953;-79
2021/01/24 10:11:43;;;;;;;76.25;48.28;;;;;;;3.09;85.79;98304.86;1684042;82;25763;-78
2021/01/24 10:14:10;;;;;;;60.28;38.70;;;;;;;3.15;85.94;98307.25;1652878;84;25793;-77
2021/01/24 10:16:36;;;;;;;44.65;30.05;;;;;;;3.09;85.61;98282.92;1659509;84;25603;-77
2021/01/24 10:19:04;;;;;;;57.15;38.45;;;;;;;3.09;85.61;98282.92;1649134;83;25761;-78
2021/01/24 10:21:31;;;;;;;73.55;50.12;;;;;;;3.19;85.71;98292.56;1615880;86;25980;-77
2021/01/24 10:23:57;;;;;;;73.07;49.90;;;;;;;3.20;85.69;98288.20;1638558;86;25852;-77
2021/01/24 10:26:23;;;;;;;107.87;72.35;;;;;;;3.18;85.70;98285.77;1637123;85;25968;-77
2021/01/24 10:28:49;;;;;;;83.03;53.38;;;;;;;3.17;85.56;98276.92;1640848;85;25932;-78
2021/01/24 10:31:16;;;;;;;52.70;37.15;;;;;;;3.17;85.62;98279.50;1664971;84;25988;-78
2021/01/24 10:33:42;;;;;;;94.28;66.85;;;;;;;3.17;85.44;98276.92;1588758;88;26394;-78
2021/01/24 10:36:09;;;;;;;44.20;31.30;;;;;;;3.03;85.06;98272.79;1614632;86;25926;-77
2021/01/24 10:38:36;;;;;;;39.65;30.20;;;;;;;3.02;85.39;98279.39;1632617;86;26011;-79
2021/01/24 10:41:02;;;;;;;41.25;28.70;;;;;;;2.92;85.21;98273.63;1638897;85;26411;-79
2021/01/24 10:43:29;;;;;;;71.75;49.10;;;;;;;2.80;85.29;98268.84;1613034;87;26500;-77
2021/01/24 10:45:55;;;;;;;70.12;48.95;;;;;;;2.77;85.78;98269.17;1603493;87;26658;-78
2021/01/24 10:48:21;;;;;;;88.33;64.15;;;;;;;2.83;86.02;98262.05;1598657;88;25925;-77
2021/01/24 10:50:48;;;;;;;59.03;43.80;;;;;;;2.86;86.28;98264.32;1580302;86;26577;-79
2021/01/24 10:53:14;;;;;;;48.23;33.80;;;;;;;2.94;86.40;98275.56;1587212;87;26614;-77
2021/01/24 10:55:40;;;;;;;51.15;36.00;;;;;;;3.03;86.54;98266.83;1586697;88;26050;-76
2021/01/24 10:58:06;;;;;;;58.80;43.25;;;;;;;3.07;86.39;98253.89;1587186;87;25974;-76
2021/01/24 11:00:32;;;;;;;79.75;54.85;;;;;;;3.14;86.48;98247.09;1592604;88;25746;-78
2021/01/24 11:03:00;;;;;;;69.20;45.00;;;;;;;3.21;86.55;98253.66;1613918;87;25906;-77
2021/01/24 11:05:27;;;;;;;43.28;31.05;;;;;;;3.26;86.46;98257.33;1630833;87;25976;-77
2021/01/24 11:07:53;;;;;;;52.65;39.65;;;;;;;3.29;86.45;98251.03;1639783;85;25930;-77
2021/01/24 11:10:20;;;;;;;77.32;50.50;;;;;;;3.33;86.30;98241.98;1660299;85;25997;-76
2021/01/24 11:12:46;;;;;;;80.45;51.45;;;;;;;3.31;86.01;98243.43;1661066;85;26175;-76
2021/01/24 11:15:13;;;;;;;119.42;73.83;;;;;;;3.34;85.97;98245.66;1660148;84;26617;-78
2021/01/24 11:17:39;;;;;;;97.30;58.95;;;;;;;3.36;85.93;98249.38;1668798;83;26599;-77
2021/01/24 11:20:08;;;;;;;73.37;47.60;;;;;;;3.39;85.86;98248.23;1717220;81;25833;-76
2021/01/24 11:22:37;;;;;;;95.92;52.88;;;;;;;3.41;85.83;98250.97;1749456;80;25816;-77
2021/01/24 11:25:07;;;;;;;150.45;80.28;;;;;;;3.41;85.69;98243.22;1713982;82;26543;-77
2021/01/24 11:27:34;;;;;;;199.82;104.43;;;;;;;3.42;85.67;98242.73;1725932;81;25716;-77
2021/01/24 11:30:03;;;;;;;83.60;49.15;;;;;;;3.40;85.62;98233.05;1723904;81;26378;-75
2021/01/24 11:32:29;;;;;;;290.40;152.95;;;;;;;3.36;85.43;98226.14;1750322;80;25884;-77
2021/01/24 11:34:55;;;;;;;102.35;57.78;;;;;;;3.31;85.51;98218.91;1769343;80;26437;-77